createdAt,value
2018-07-24T16:58:22.218Z,10.60
2018-07-24T17:00:50.750Z,11.83
2018-07-24T17:03:19.281Z,11.50
2018-07-24T17:05:47.858Z,11.30
2018-07-24T17:08:16.624Z,11.90
2018-07-24T17:10:45.238Z,12.13
2018-07-24T17:13:13.798Z,11.10
2018-07-24T17:15:42.306Z,11.57
2018-07-24T17:18:10.832Z,14.60
2018-07-24T17:20:39.402Z,13.00
2018-07-24T17:23:07.953Z,13.23
2018-07-24T17:25:38.255Z,13.13
2018-07-24T17:28:07.691Z,13.10
2018-07-24T17:33:10.551Z,12.37
2018-07-24T17:35:39.158Z,12.63
2018-07-24T17:38:07.695Z,11.03
2018-07-24T17:40:36.243Z,12.43
2018-07-24T17:43:04.796Z,11.93
2018-07-24T17:45:33.308Z,11.43
2018-07-24T17:48:01.991Z,11.40
2018-07-24T17:50:30.640Z,12.43
2018-07-24T17:52:59.083Z,12.23
2018-07-24T17:55:27.578Z,12.43
2018-07-24T17:57:56.097Z,17.70
2018-07-24T18:00:24.842Z,15.60
2018-07-24T18:03:55.898Z,16.40
2018-07-24T18:06:24.407Z,15.50
2018-07-24T18:08:53.031Z,15.00
2018-07-24T18:11:21.571Z,14.20
2018-07-24T18:13:50.092Z,14.50
2018-07-24T18:16:18.604Z,14.30
2018-07-24T18:18:47.177Z,14.07
2018-07-24T18:21:15.802Z,12.63
2018-07-24T18:23:44.334Z,14.43
2018-07-24T18:26:12.813Z,12.67
2018-07-24T18:28:41.343Z,13.00
2018-07-24T18:31:09.823Z,14.63
2018-07-24T18:33:38.423Z,14.10
2018-07-24T18:36:06.935Z,12.70
2018-07-24T18:38:35.533Z,13.50
2018-07-24T18:41:04.070Z,12.53
2018-07-24T18:43:32.533Z,14.40
2018-07-24T18:46:01.024Z,12.63
2018-07-24T18:48:29.601Z,12.50
2018-07-24T18:50:58.303Z,13.17
2018-07-24T18:53:26.840Z,12.30
2018-07-24T18:55:55.461Z,12.97
2018-07-24T18:58:24.599Z,12.90
2018-07-24T19:00:53.164Z,12.93
2018-07-24T19:03:21.711Z,13.50
2018-07-24T19:05:50.349Z,13.83
2018-07-24T19:08:19.077Z,12.63
2018-07-24T19:10:47.556Z,11.33
2018-07-24T19:13:16.045Z,12.77
2018-07-24T19:15:44.646Z,13.07
2018-07-24T19:18:13.246Z,12.37
2018-07-24T19:20:41.642Z,11.63
2018-07-24T19:23:10.274Z,13.33
2018-07-24T19:25:38.897Z,12.37
2018-07-24T19:28:07.462Z,12.30
2018-07-24T19:30:36.097Z,11.77
2018-07-24T19:33:04.606Z,12.70
2018-07-24T19:35:33.134Z,13.30
2018-07-24T19:38:01.571Z,12.23
2018-07-24T19:40:30.093Z,12.00
2018-07-24T19:42:58.576Z,12.20
2018-07-24T19:45:27.102Z,12.23
2018-07-24T19:47:55.593Z,12.50
2018-07-24T19:50:24.130Z,12.50
2018-07-24T19:52:52.658Z,12.60
2018-07-24T19:55:21.150Z,12.00
2018-07-24T19:57:51.448Z,11.30
2018-07-24T20:00:19.968Z,12.37
2018-07-24T20:02:48.490Z,13.13
2018-07-24T20:05:17.564Z,13.17
2018-07-24T20:07:46.040Z,12.83
2018-07-24T20:10:14.709Z,12.37
2018-07-24T20:12:43.224Z,12.47
2018-07-24T20:15:17.757Z,12.23
2018-07-24T20:17:46.282Z,10.83
2018-07-24T20:20:15.721Z,15.17
2018-07-24T20:22:44.465Z,12.80
2018-07-24T20:25:13.828Z,11.20
2018-07-24T20:27:44.165Z,10.90
2018-07-24T20:30:12.879Z,11.70
2018-07-24T20:32:41.485Z,35.37
2018-07-24T20:35:10.069Z,334.47
2018-07-24T20:37:38.526Z,111.43
2018-07-24T20:40:07.321Z,77.03
2018-07-24T20:42:36.337Z,80.27
2018-07-24T20:45:05.615Z,93.97
2018-07-24T20:47:34.189Z,92.13
2018-07-24T20:50:02.982Z,88.37
2018-07-24T20:52:31.936Z,83.67
2018-07-24T20:55:00.502Z,91.00
2018-07-24T20:57:30.225Z,101.93
2018-07-24T20:59:59.160Z,86.10
2018-07-24T21:02:27.647Z,90.57
2018-07-24T21:04:56.177Z,94.17
2018-07-24T21:07:24.709Z,88.63
2018-07-24T21:09:53.791Z,103.10
2018-07-24T21:12:22.286Z,111.43
2018-07-24T21:14:51.014Z,112.07
2018-07-24T21:17:20.005Z,104.47
2018-07-24T21:19:48.697Z,132.13
2018-07-24T21:22:17.189Z,133.50
2018-07-24T21:24:45.755Z,146.30
2018-07-24T21:27:14.291Z,202.77
2018-07-24T21:29:42.762Z,116.60
2018-07-24T21:32:11.238Z,117.17
2018-07-24T21:34:40.412Z,99.63
2018-07-24T21:37:08.507Z,98.23
2018-07-24T21:39:42.317Z,82.13
2018-07-24T21:42:11.653Z,83.87
2018-07-24T21:44:40.155Z,79.17
2018-07-24T21:47:08.659Z,64.03
2018-07-24T21:49:37.217Z,54.27
2018-07-24T21:52:05.780Z,52.70
2018-07-24T21:54:34.302Z,48.47
2018-07-24T21:57:02.812Z,42.00
2018-07-24T21:59:31.609Z,36.27
2018-07-24T22:02:00.149Z,39.23
2018-07-24T22:04:28.687Z,34.50
2018-07-24T22:06:57.250Z,33.00
2018-07-24T22:09:25.799Z,30.27
2018-07-24T22:11:54.382Z,28.23
2018-07-24T22:14:22.970Z,25.00
2018-07-24T22:16:51.463Z,22.93
2018-07-24T22:19:19.991Z,23.10
2018-07-24T22:21:48.526Z,20.70
2018-07-24T22:24:17.056Z,17.93
2018-07-24T22:26:45.583Z,19.73
2018-07-24T22:29:14.299Z,18.40
2018-07-24T22:31:42.857Z,17.77
2018-07-24T22:34:11.349Z,17.13
2018-07-24T22:36:39.893Z,16.07
2018-07-24T22:39:10.018Z,16.37
2018-07-24T22:41:38.554Z,14.80
2018-07-24T22:44:07.054Z,12.50
2018-07-24T22:46:35.878Z,13.80
2018-07-24T22:49:04.647Z,12.90
2018-07-24T22:51:33.159Z,12.00
2018-07-24T22:54:01.674Z,12.03
2018-07-24T22:56:30.187Z,12.03
2018-07-24T22:58:58.726Z,11.27
2018-07-24T23:01:27.237Z,11.27
2018-07-24T23:03:55.774Z,10.77
2018-07-24T23:06:24.294Z,12.00
2018-07-24T23:08:52.787Z,10.00
2018-07-24T23:11:21.315Z,11.10
2018-07-24T23:13:49.854Z,11.13
2018-07-24T23:16:18.371Z,10.17
2018-07-24T23:18:46.867Z,10.27
2018-07-24T23:21:15.363Z,10.37
2018-07-24T23:23:43.891Z,10.97
2018-07-24T23:26:12.398Z,10.60
2018-07-24T23:28:40.922Z,10.63
2018-07-24T23:31:09.453Z,8.93
2018-07-24T23:33:37.954Z,9.93
2018-07-24T23:36:06.535Z,10.30
2018-07-24T23:38:35.382Z,10.50
2018-07-24T23:41:03.962Z,9.43
2018-07-24T23:43:32.513Z,9.13
2018-07-24T23:46:01.303Z,10.33
2018-07-24T23:48:29.825Z,11.20
2018-07-24T23:50:58.306Z,9.33
2018-07-24T23:53:26.826Z,9.23
2018-07-24T23:55:55.335Z,10.10
2018-07-24T23:58:23.951Z,9.33
